Time;durP1;ratioP1;P1;durP2;ratioP2;P2;SDS_P1;SDS_P2;PMS_P1;PMS_P2;Temp;Humidity;BMP_temperature;BMP_pressure;BME280_temperature;BME280_humidity;BME280_pressure;Samples;Min_cycle;Max_cycle;Signal;HPM_P1;HPM_P2
2021/11/19 00:01:46;;;;;;;9.13;5.77;;;;;;;;;;5099197;28;20728;-71
2021/11/19 00:04:14;;;;;;;8.43;5.90;;;;;;;;;;5099620;28;20225;-71
2021/11/19 00:06:43;;;;;;;8.70;5.80;;;;;;;;;;5099362;28;20206;-71
2021/11/19 00:09:11;;;;;;;9.13;5.27;;;;;;;;;;5099170;28;20222;-71
2021/11/19 00:11:40;;;;;;;8.53;6.23;;;;;;;;;;5095192;28;20289;-71
2021/11/19 00:14:09;;;;;;;9.73;5.70;;;;;;;;;;5099219;28;20202;-70
2021/11/19 00:16:37;;;;;;;10.27;6.20;;;;;;;;;;5098868;28;20571;-71
2021/11/19 00:19:06;;;;;;;8.23;6.30;;;;;;;;;;5099294;28;20243;-71
2021/11/19 00:21:36;;;;;;;9.33;6.30;;;;;;;;;;5098831;28;20212;-71
2021/11/19 00:24:06;;;;;;;11.17;6.37;;;;;;;;;;5098847;28;20229;-70
2021/11/19 00:26:34;;;;;;;9.73;6.03;;;;;;;;;;5098953;28;20209;-71
2021/11/19 00:29:02;;;;;;;10.17;6.50;;;;;;;;;;5099108;28;20228;-70
2021/11/19 00:31:31;;;;;;;9.20;6.63;;;;;;;;;;5098810;28;20233;-71
2021/11/19 00:33:59;;;;;;;7.60;5.57;;;;;;;;;;5099049;28;20202;-71
2021/11/19 00:36:30;;;;;;;7.97;5.67;;;;;;;;;;5098611;28;20214;-70
2021/11/19 00:38:59;;;;;;;6.37;5.43;;;;;;;;;;5098579;28;20573;-70
2021/11/19 00:41:28;;;;;;;7.97;5.83;;;;;;;;;;5098655;28;20576;-70
2021/11/19 00:43:56;;;;;;;8.17;6.20;;;;;;;;;;5098242;28;20724;-71
2021/11/19 00:46:24;;;;;;;7.90;5.80;;;;;;;;;;5098794;28;20209;-70
2021/11/19 00:48:52;;;;;;;5.97;5.17;;;;;;;;;;5098630;28;20316;-71
2021/11/19 00:51:25;;;;;;;10.17;6.50;;;;;;;;;;5098581;28;20216;-70
2021/11/19 00:53:55;;;;;;;8.03;5.53;;;;;;;;;;5098733;28;20208;-70
2021/11/19 00:56:26;;;;;;;8.30;6.07;;;;;;;;;;5098542;28;20205;-70
2021/11/19 00:58:54;;;;;;;9.83;6.37;;;;;;;;;;5098301;28;20308;-70
2021/11/19 01:01:24;;;;;;;8.43;5.73;;;;;;;;;;5097500;28;20258;-71
2021/11/19 01:03:52;;;;;;;10.50;5.97;;;;;;;;;;5098147;28;20763;-70
2021/11/19 01:06:20;;;;;;;9.60;6.73;;;;;;;;;;5098150;28;20289;-71
2021/11/19 01:09:09;;;;;;;7.50;6.10;;;;;;;;;;5097243;28;20712;-70
2021/11/19 01:11:38;;;;;;;9.57;5.57;;;;;;;;;;5098295;28;20296;-70
2021/11/19 01:14:08;;;;;;;8.57;5.40;;;;;;;;;;5098090;28;20206;-70
2021/11/19 01:16:38;;;;;;;8.17;5.30;;;;;;;;;;5098006;28;20215;-70
2021/11/19 01:19:07;;;;;;;7.67;5.83;;;;;;;;;;5097934;28;20588;-70
2021/11/19 01:21:38;;;;;;;9.43;5.50;;;;;;;;;;5098016;28;20269;-71
2021/11/19 01:24:07;;;;;;;8.13;5.70;;;;;;;;;;5097956;28;20222;-70
2021/11/19 01:26:37;;;;;;;7.03;5.40;;;;;;;;;;5097779;28;20212;-70
2021/11/19 01:29:06;;;;;;;8.27;5.30;;;;;;;;;;5098141;28;20284;-70
2021/11/19 01:31:36;;;;;;;6.93;5.20;;;;;;;;;;5097553;28;20219;-71
2021/11/19 01:34:04;;;;;;;8.27;5.53;;;;;;;;;;5098217;28;20212;-71
2021/11/19 01:36:32;;;;;;;6.60;5.27;;;;;;;;;;5097606;28;20296;-71
2021/11/19 01:39:00;;;;;;;8.43;5.33;;;;;;;;;;5097454;28;20312;-71
2021/11/19 01:41:32;;;;;;;6.23;5.57;;;;;;;;;;5097953;28;20237;-71
2021/11/19 01:44:00;;;;;;;8.80;5.50;;;;;;;;;;5097379;28;20241;-71
2021/11/19 01:46:30;;;;;;;7.83;5.70;;;;;;;;;;5097531;28;20237;-71
2021/11/19 01:48:59;;;;;;;8.40;6.40;;;;;;;;;;5097682;28;20239;-70
2021/11/19 01:51:29;;;;;;;9.13;6.23;;;;;;;;;;5097526;28;20304;-71
2021/11/19 01:53:59;;;;;;;8.17;6.10;;;;;;;;;;5097556;28;20220;-70
2021/11/19 01:56:31;;;;;;;9.17;6.23;;;;;;;;;;5097499;28;20213;-70
2021/11/19 01:59:01;;;;;;;9.10;5.87;;;;;;;;;;5098568;28;20222;-69
2021/11/19 02:01:31;;;;;;;8.53;5.83;;;;;;;;;;5100603;28;20565;-70
2021/11/19 02:04:03;;;;;;;9.47;6.33;;;;;;;;;;5102306;28;20200;-70
2021/11/19 02:06:35;;;;;;;8.97;6.40;;;;;;;;;;5106699;28;20246;-70
2021/11/19 02:09:05;;;;;;;11.83;6.57;;;;;;;;;;5096170;28;20222;-70
2021/11/19 02:11:41;;;;;;;7.83;6.10;;;;;;;;;;5086987;28;20202;-71
2021/11/19 02:14:11;;;;;;;9.33;6.10;;;;;;;;;;5083242;28;20205;-70
2021/11/19 02:16:40;;;;;;;10.80;6.57;;;;;;;;;;5088121;28;20209;-70
2021/11/19 02:19:09;;;;;;;9.33;7.03;;;;;;;;;;5088204;28;20661;-70
2021/11/19 02:21:39;;;;;;;8.80;6.40;;;;;;;;;;5088316;28;20201;-69
2021/11/19 02:24:09;;;;;;;8.63;6.70;;;;;;;;;;5088534;28;20281;-69
2021/11/19 02:26:41;;;;;;;8.23;6.57;;;;;;;;;;5085829;28;20202;-69
2021/11/19 02:29:09;;;;;;;9.47;6.13;;;;;;;;;;5089645;28;20272;-69
2021/11/19 02:31:46;;;;;;;9.80;6.63;;;;;;;;;;5099727;28;20280;-69
2021/11/19 02:34:14;;;;;;;9.07;7.00;;;;;;;;;;5100940;28;20211;-69
2021/11/19 02:36:50;;;;;;;9.50;6.50;;;;;;;;;;5101064;28;20676;-69
2021/11/19 02:39:20;;;;;;;8.07;6.33;;;;;;;;;;5101220;28;20411;-69
2021/11/19 02:41:54;;;;;;;11.57;6.90;;;;;;;;;;5101131;28;20716;-69
2021/11/19 02:44:24;;;;;;;10.37;7.00;;;;;;;;;;5100886;28;20239;-69
2021/11/19 02:46:54;;;;;;;13.87;7.63;;;;;;;;;;5100818;28;20733;-69
2021/11/19 02:49:22;;;;;;;9.97;7.07;;;;;;;;;;5100668;28;20741;-69
2021/11/19 02:51:51;;;;;;;7.90;6.20;;;;;;;;;;5100641;28;20691;-70
2021/11/19 02:54:20;;;;;;;9.67;6.50;;;;;;;;;;5100671;28;20297;-69
2021/11/19 02:56:50;;;;;;;9.37;6.30;;;;;;;;;;5101238;28;20665;-69
2021/11/19 02:59:19;;;;;;;8.57;6.73;;;;;;;;;;5100781;28;20225;-69
2021/11/19 03:01:49;;;;;;;9.47;6.30;;;;;;;;;;5100311;28;20288;-69
2021/11/19 03:04:20;;;;;;;11.13;6.53;;;;;;;;;;5100616;28;20633;-70
2021/11/19 03:06:49;;;;;;;8.50;6.73;;;;;;;;;;5100727;28;20289;-70
2021/11/19 03:09:21;;;;;;;10.57;6.83;;;;;;;;;;5099548;28;20222;-69
2021/11/19 03:11:51;;;;;;;10.50;7.00;;;;;;;;;;5097204;28;20221;-70
2021/11/19 03:14:21;;;;;;;9.30;6.63;;;;;;;;;;5100602;28;20223;-69
2021/11/19 03:16:50;;;;;;;9.57;6.57;;;;;;;;;;5100756;28;20283;-69
2021/11/19 03:19:18;;;;;;;8.53;6.40;;;;;;;;;;5100238;28;20239;-69
2021/11/19 03:21:46;;;;;;;9.57;7.03;;;;;;;;;;5100267;28;20641;-69
2021/11/19 03:24:15;;;;;;;9.77;6.63;;;;;;;;;;5099640;28;20293;-69
2021/11/19 03:26:43;;;;;;;9.57;7.20;;;;;;;;;;5100295;28;20225;-69
2021/11/19 03:29:13;;;;;;;9.57;6.63;;;;;;;;;;5100360;28;20222;-69
2021/11/19 03:31:41;;;;;;;8.63;6.77;;;;;;;;;;5100100;28;20229;-70
2021/11/19 03:34:10;;;;;;;9.27;6.83;;;;;;;;;;5100365;28;20367;-69
2021/11/19 03:36:39;;;;;;;9.57;6.53;;;;;;;;;;5100205;28;20261;-69
2021/11/19 03:39:07;;;;;;;9.67;6.50;;;;;;;;;;5100249;28;20285;-70
2021/11/19 03:41:36;;;;;;;9.57;6.93;;;;;;;;;;5100138;28;20209;-69
2021/11/19 03:44:06;;;;;;;13.37;7.70;;;;;;;;;;5099775;28;20301;-69
2021/11/19 03:46:37;;;;;;;10.50;6.97;;;;;;;;;;5099678;28;20260;-69
2021/11/19 03:49:06;;;;;;;9.50;7.23;;;;;;;;;;5099617;28;20599;-69
2021/11/19 03:51:36;;;;;;;9.73;6.30;;;;;;;;;;5099926;28;20206;-70
2021/11/19 03:54:05;;;;;;;10.40;6.70;;;;;;;;;;5099529;28;20292;-69
2021/11/19 03:56:33;;;;;;;9.47;6.43;;;;;;;;;;5100043;28;20213;-70
2021/11/19 03:59:01;;;;;;;9.73;6.63;;;;;;;;;;5099413;28;20320;-70
2021/11/19 04:01:32;;;;;;;11.40;6.80;;;;;;;;;;5099545;28;20209;-69
2021/11/19 04:04:02;;;;;;;10.20;6.63;;;;;;;;;;5099500;28;20672;-69
2021/11/19 04:06:31;;;;;;;10.40;6.57;;;;;;;;;;5099632;28;20236;-70
2021/11/19 04:08:59;;;;;;;13.73;8.47;;;;;;;;;;5099031;28;20309;-70
2021/11/19 04:11:28;;;;;;;9.50;6.43;;;;;;;;;;5096070;28;20243;-69
2021/11/19 04:13:56;;;;;;;9.70;6.87;;;;;;;;;;5099319;28;20264;-70
2021/11/19 04:16:29;;;;;;;10.53;6.93;;;;;;;;;;5098880;28;20208;-69
2021/11/19 04:18:58;;;;;;;10.87;7.23;;;;;;;;;;5098819;28;20716;-70
2021/11/19 04:21:28;;;;;;;9.27;6.80;;;;;;;;;;5099037;28;20209;-70
2021/11/19 04:23:57;;;;;;;10.23;6.53;;;;;;;;;;5098889;28;20205;-70
2021/11/19 04:26:26;;;;;;;11.47;7.27;;;;;;;;;;5098732;28;20217;-70
2021/11/19 04:28:54;;;;;;;10.33;7.20;;;;;;;;;;5099063;28;20223;-69
2021/11/19 04:31:24;;;;;;;8.93;6.80;;;;;;;;;;5098626;28;20198;-70
2021/11/19 04:33:52;;;;;;;8.67;6.77;;;;;;;;;;5098787;28;20251;-69
2021/11/19 04:36:20;;;;;;;10.57;7.20;;;;;;;;;;5097733;28;20205;-69
2021/11/19 04:38:50;;;;;;;13.90;7.23;;;;;;;;;;5099061;28;20240;-70
2021/11/19 04:41:18;;;;;;;11.03;6.97;;;;;;;;;;5099140;28;20233;-70
2021/11/19 04:43:46;;;;;;;12.47;7.03;;;;;;;;;;5098843;28;20726;-70
2021/11/19 04:46:14;;;;;;;11.67;7.20;;;;;;;;;;5085050;28;20279;-69
2021/11/19 04:48:43;;;;;;;10.43;7.40;;;;;;;;;;5098339;28;20591;-69
2021/11/19 04:51:12;;;;;;;10.57;7.03;;;;;;;;;;5098212;28;20288;-69
2021/11/19 04:53:40;;;;;;;11.70;7.20;;;;;;;;;;5094812;28;20289;-69
2021/11/19 04:56:10;;;;;;;11.53;7.47;;;;;;;;;;5098024;28;20627;-69
2021/11/19 04:58:39;;;;;;;14.77;8.07;;;;;;;;;;5097885;28;20220;-71
2021/11/19 05:01:08;;;;;;;12.63;6.47;;;;;;;;;;5095662;28;20225;-71
2021/11/19 05:03:37;;;;;;;12.27;7.70;;;;;;;;;;5098121;28;20202;-71
2021/11/19 05:06:05;;;;;;;12.37;8.10;;;;;;;;;;5096031;28;20221;-70
2021/11/19 05:08:33;;;;;;;11.50;7.20;;;;;;;;;;5097929;28;20666;-69
2021/11/19 05:11:01;;;;;;;11.43;7.53;;;;;;;;;;5093479;28;20660;-69
2021/11/19 05:13:32;;;;;;;10.20;7.60;;;;;;;;;;5098316;28;20522;-70
2021/11/19 05:16:01;;;;;;;12.17;7.87;;;;;;;;;;5098143;28;20288;-70
2021/11/19 05:18:30;;;;;;;10.97;7.40;;;;;;;;;;5102951;28;20273;-69
2021/11/19 05:20:58;;;;;;;11.23;7.37;;;;;;;;;;5107159;28;20233;-69
2021/11/19 05:23:27;;;;;;;11.60;8.07;;;;;;;;;;5103146;28;20677;-69
2021/11/19 05:25:55;;;;;;;13.23;9.07;;;;;;;;;;5098212;28;20209;-69
2021/11/19 05:28:24;;;;;;;13.90;8.93;;;;;;;;;;5098106;28;20228;-69
2021/11/19 05:30:54;;;;;;;15.30;8.93;;;;;;;;;;5097553;28;20478;-69
2021/11/19 05:33:24;;;;;;;13.80;8.70;;;;;;;;;;5098067;28;20241;-69
2021/11/19 05:35:51;;;;;;;12.77;8.73;;;;;;;;;;5092843;28;20281;-69
2021/11/19 05:38:20;;;;;;;14.37;9.40;;;;;;;;;;5092909;28;20465;-71
2021/11/19 05:40:48;;;;;;;16.63;9.90;;;;;;;;;;5097808;28;20288;-70
2021/11/19 05:43:16;;;;;;;14.03;9.73;;;;;;;;;;5094096;28;20634;-71
2021/11/19 05:45:44;;;;;;;15.13;9.40;;;;;;;;;;5096852;28;20440;-70
2021/11/19 05:48:14;;;;;;;17.40;9.90;;;;;;;;;;5097513;28;20496;-71
2021/11/19 05:50:43;;;;;;;13.57;9.20;;;;;;;;;;5097348;28;20991;-69
2021/11/19 05:53:11;;;;;;;15.53;9.77;;;;;;;;;;5097066;28;20807;-68
2021/11/19 05:55:41;;;;;;;12.73;9.07;;;;;;;;;;5097601;28;20526;-68
2021/11/19 05:58:09;;;;;;;17.33;10.50;;;;;;;;;;5099601;28;20538;-68
2021/11/19 06:00:42;;;;;;;14.93;9.97;;;;;;;;;;5097193;28;20446;-68
2021/11/19 06:03:10;;;;;;;19.20;11.17;;;;;;;;;;5097574;28;20452;-69
2021/11/19 06:05:40;;;;;;;20.77;11.17;;;;;;;;;;5097298;28;20499;-67
2021/11/19 06:08:08;;;;;;;18.20;11.60;;;;;;;;;;5097098;28;20313;-65
2021/11/19 06:10:38;;;;;;;17.20;10.93;;;;;;;;;;5097137;28;20447;-68
2021/11/19 06:13:07;;;;;;;18.70;11.47;;;;;;;;;;5097130;28;20526;-69
2021/11/19 06:15:37;;;;;;;18.67;11.37;;;;;;;;;;5096587;28;20875;-69
2021/11/19 06:18:06;;;;;;;16.53;10.40;;;;;;;;;;5097346;28;20451;-69
2021/11/19 06:20:35;;;;;;;18.57;10.90;;;;;;;;;;5097109;28;20526;-69
2021/11/19 06:23:06;;;;;;;17.23;10.40;;;;;;;;;;5097070;28;20538;-68
2021/11/19 06:25:35;;;;;;;17.27;11.00;;;;;;;;;;5097169;28;20443;-68
2021/11/19 06:28:05;;;;;;;20.90;11.67;;;;;;;;;;5096850;28;20479;-69
2021/11/19 06:30:33;;;;;;;19.90;11.53;;;;;;;;;;5090641;28;20436;-69
2021/11/19 06:33:02;;;;;;;17.83;10.50;;;;;;;;;;5096987;28;21000;-69
2021/11/19 06:35:30;;;;;;;18.77;11.80;;;;;;;;;;5096848;28;20443;-68
2021/11/19 06:37:58;;;;;;;19.23;11.87;;;;;;;;;;5097233;28;20466;-68
2021/11/19 06:40:29;;;;;;;22.70;11.53;;;;;;;;;;5097045;28;20447;-70
2021/11/19 06:42:58;;;;;;;20.17;12.13;;;;;;;;;;5096977;28;20237;-69
2021/11/19 06:45:26;;;;;;;22.37;13.00;;;;;;;;;;5096589;28;20760;-69
2021/11/19 06:47:55;;;;;;;22.37;11.83;;;;;;;;;;5097313;28;20228;-69
2021/11/19 06:50:24;;;;;;;21.67;11.20;;;;;;;;;;5096755;28;20463;-70
2021/11/19 06:52:52;;;;;;;25.43;12.03;;;;;;;;;;5096101;28;20471;-70
2021/11/19 06:55:20;;;;;;;21.50;12.20;;;;;;;;;;5096876;28;20888;-70
2021/11/19 06:57:50;;;;;;;21.53;12.77;;;;;;;;;;5097212;28;20531;-70
2021/11/19 07:00:20;;;;;;;23.87;11.83;;;;;;;;;;5100136;28;20548;-70
2021/11/19 07:02:48;;;;;;;27.63;13.23;;;;;;;;;;5098322;28;20542;-70
2021/11/19 07:05:16;;;;;;;22.93;12.50;;;;;;;;;;5098184;28;20546;-70
2021/11/19 07:07:44;;;;;;;21.33;12.47;;;;;;;;;;5098750;28;20718;-70
2021/11/19 07:10:13;;;;;;;25.27;12.73;;;;;;;;;;5098989;28;20289;-70
2021/11/19 07:12:41;;;;;;;23.37;13.00;;;;;;;;;;5100069;28;20895;-70
2021/11/19 07:15:13;;;;;;;24.37;13.30;;;;;;;;;;5098317;28;20446;-70
2021/11/19 07:17:41;;;;;;;22.53;13.23;;;;;;;;;;5098318;28;20471;-70
2021/11/19 07:20:11;;;;;;;24.93;14.53;;;;;;;;;;5098335;28;20471;-70
2021/11/19 07:22:39;;;;;;;25.73;13.10;;;;;;;;;;5098097;28;20534;-70
2021/11/19 07:25:09;;;;;;;28.83;14.30;;;;;;;;;;5098263;28;20447;-70
2021/11/19 07:27:37;;;;;;;25.97;13.13;;;;;;;;;;5097887;28;20908;-69
2021/11/19 07:30:06;;;;;;;24.43;13.53;;;;;;;;;;5098669;28;20518;-70
2021/11/19 07:32:36;;;;;;;27.97;14.33;;;;;;;;;;5099109;28;20212;-70
2021/11/19 07:35:05;;;;;;;28.37;14.63;;;;;;;;;;5098027;28;20285;-70
2021/11/19 07:37:33;;;;;;;27.73;13.90;;;;;;;;;;5097966;28;20204;-70
2021/11/19 07:40:01;;;;;;;33.10;15.93;;;;;;;;;;5097700;28;20550;-70
2021/11/19 07:42:29;;;;;;;31.10;14.53;;;;;;;;;;5097741;28;20480;-70
2021/11/19 07:44:57;;;;;;;29.07;14.17;;;;;;;;;;5084313;28;20507;-70
2021/11/19 07:47:25;;;;;;;25.77;13.73;;;;;;;;;;5097886;28;20543;-69
2021/11/19 07:49:54;;;;;;;28.43;15.33;;;;;;;;;;5099311;28;20470;-70
2021/11/19 07:52:22;;;;;;;26.10;13.63;;;;;;;;;;5099609;28;20827;-70
2021/11/19 07:54:51;;;;;;;28.37;13.80;;;;;;;;;;5099495;28;20450;-70
2021/11/19 07:57:19;;;;;;;28.37;13.83;;;;;;;;;;5099427;28;20447;-70
2021/11/19 07:59:47;;;;;;;29.63;14.77;;;;;;;;;;5098743;28;20502;-70
2021/11/19 08:02:15;;;;;;;28.50;14.83;;;;;;;;;;5099311;28;20534;-70
2021/11/19 08:04:43;;;;;;;30.97;16.13;;;;;;;;;;5099210;28;20233;-70
2021/11/19 08:07:12;;;;;;;30.90;14.17;;;;;;;;;;5099074;28;20550;-70
2021/11/19 08:09:40;;;;;;;27.03;14.37;;;;;;;;;;5098921;28;20470;-70
2021/11/19 08:12:09;;;;;;;30.80;15.77;;;;;;;;;;5099008;28;20456;-69
2021/11/19 08:14:37;;;;;;;23.77;13.80;;;;;;;;;;5099034;28;20535;-70
2021/11/19 08:17:11;;;;;;;26.50;13.77;;;;;;;;;;5099269;28;20452;-69
2021/11/19 08:19:44;;;;;;;26.10;13.60;;;;;;;;;;5099091;28;20542;-70
2021/11/19 08:22:15;;;;;;;24.73;13.80;;;;;;;;;;5099221;28;20531;-70
2021/11/19 08:24:44;;;;;;;30.93;14.87;;;;;;;;;;5096361;28;20437;-70
2021/11/19 08:27:12;;;;;;;26.80;14.67;;;;;;;;;;5098988;28;20439;-69
2021/11/19 08:29:42;;;;;;;32.80;15.47;;;;;;;;;;5098172;28;20547;-69
2021/11/19 08:32:11;;;;;;;28.20;14.80;;;;;;;;;;5098768;28;20530;-70
2021/11/19 08:34:39;;;;;;;31.60;15.60;;;;;;;;;;5098835;28;20530;-70
2021/11/19 08:37:07;;;;;;;31.80;14.63;;;;;;;;;;5098518;28;20440;-70
2021/11/19 08:39:37;;;;;;;26.17;13.50;;;;;;;;;;5098328;28;20482;-70
2021/11/19 08:42:06;;;;;;;30.33;15.50;;;;;;;;;;5098895;28;20439;-70
2021/11/19 08:44:34;;;;;;;27.40;13.73;;;;;;;;;;5098521;28;20530;-70
2021/11/19 08:47:20;;;;;;;26.20;15.23;;;;;;;;;;5098399;28;20546;-70
2021/11/19 08:49:49;;;;;;;29.13;14.93;;;;;;;;;;5097930;28;20280;-70
2021/11/19 08:52:18;;;;;;;30.50;15.23;;;;;;;;;;5098402;28;20736;-70
2021/11/19 08:54:48;;;;;;;27.33;14.83;;;;;;;;;;5098453;28;20458;-70
2021/11/19 08:57:18;;;;;;;26.80;13.90;;;;;;;;;;5098211;28;21125;-70
2021/11/19 08:59:47;;;;;;;24.87;13.83;;;;;;;;;;5098143;28;20495;-70
2021/11/19 09:02:17;;;;;;;26.87;13.80;;;;;;;;;;5098231;28;20471;-70
2021/11/19 09:05:00;;;;;;;31.27;14.43;;;;;;;;;;5098231;28;20443;-70
2021/11/19 09:07:30;;;;;;;27.90;13.50;;;;;;;;;;5098198;28;20447;-70
2021/11/19 09:10:01;;;;;;;25.17;13.53;;;;;;;;;;5097853;28;20846;-70
2021/11/19 09:12:30;;;;;;;26.40;14.30;;;;;;;;;;5098291;28;20444;-70
2021/11/19 09:14:58;;;;;;;24.10;14.47;;;;;;;;;;5097501;28;20288;-70
2021/11/19 09:17:39;;;;;;;25.10;13.90;;;;;;;;;;5098056;28;20288;-70
2021/11/19 09:20:13;;;;;;;27.17;13.83;;;;;;;;;;5097663;28;20231;-70
2021/11/19 09:22:42;;;;;;;26.63;14.20;;;;;;;;;;5097371;28;20211;-70
2021/11/19 09:25:13;;;;;;;25.27;14.30;;;;;;;;;;5095475;28;20295;-70
2021/11/19 09:27:43;;;;;;;25.20;13.50;;;;;;;;;;5097737;28;20288;-70
2021/11/19 09:30:15;;;;;;;26.00;13.80;;;;;;;;;;5097344;28;20251;-70
2021/11/19 09:32:44;;;;;;;24.37;14.17;;;;;;;;;;5098007;28;20372;-70
2021/11/19 09:35:12;;;;;;;27.37;14.27;;;;;;;;;;5094822;28;20210;-70
2021/11/19 09:37:41;;;;;;;26.03;14.43;;;;;;;;;;5090527;28;20205;-71
2021/11/19 09:40:11;;;;;;;27.53;14.70;;;;;;;;;;5097305;28;20292;-70
2021/11/19 09:42:44;;;;;;;24.37;14.07;;;;;;;;;;5097263;28;20239;-70
2021/11/19 09:45:31;;;;;;;25.83;14.73;;;;;;;;;;5097394;28;20210;-70
2021/11/19 09:48:22;;;;;;;26.77;13.73;;;;;;;;;;5097738;28;20257;-70
2021/11/19 09:51:08;;;;;;;23.57;13.13;;;;;;;;;;5097399;28;20288;-71
2021/11/19 09:53:55;;;;;;;21.23;12.77;;;;;;;;;;5097991;28;20218;-70
2021/11/19 09:56:46;;;;;;;24.80;13.57;;;;;;;;;;5097624;28;20526;-70
2021/11/19 09:59:18;;;;;;;27.87;14.57;;;;;;;;;;5097052;28;20748;-70
2021/11/19 10:02:01;;;;;;;25.80;13.37;;;;;;;;;;5097808;28;20482;-70
2021/11/19 10:04:47;;;;;;;22.57;13.30;;;;;;;;;;5085647;28;20209;-71
2021/11/19 10:07:22;;;;;;;25.93;13.77;;;;;;;;;;5097340;28;20209;-70
2021/11/19 10:10:06;;;;;;;22.63;13.23;;;;;;;;;;5097660;28;20312;-70
2021/11/19 10:12:37;;;;;;;25.50;12.93;;;;;;;;;;5097751;28;20475;-70
2021/11/19 10:15:07;;;;;;;24.77;13.23;;;;;;;;;;5097416;28;20248;-70
2021/11/19 10:17:42;;;;;;;21.30;13.13;;;;;;;;;;5097477;28;20292;-70
2021/11/19 10:20:12;;;;;;;23.50;13.03;;;;;;;;;;5097621;28;20284;-70
2021/11/19 10:22:42;;;;;;;22.67;12.70;;;;;;;;;;5097660;28;20288;-70
2021/11/19 10:25:12;;;;;;;23.27;13.30;;;;;;;;;;5097341;28;20221;-70
2021/11/19 10:27:43;;;;;;;23.80;12.90;;;;;;;;;;5097290;28;20205;-70
2021/11/19 10:30:21;;;;;;;22.97;13.47;;;;;;;;;;5096706;28;20784;-70
2021/11/19 10:32:50;;;;;;;24.30;13.47;;;;;;;;;;5097546;28;20288;-70
2021/11/19 10:35:34;;;;;;;22.63;14.37;;;;;;;;;;5098907;28;20312;-71
2021/11/19 10:38:16;;;;;;;23.70;13.53;;;;;;;;;;5091692;28;20225;-71
2021/11/19 10:41:03;;;;;;;25.23;14.03;;;;;;;;;;5100824;28;20285;-70
2021/11/19 10:43:45;;;;;;;22.37;13.10;;;;;;;;;;5100735;28;20320;-70
2021/11/19 10:46:28;;;;;;;24.87;13.60;;;;;;;;;;5101075;28;20288;-70
2021/11/19 10:49:02;;;;;;;24.40;13.33;;;;;;;;;;5100944;28;20241;-70
2021/11/19 10:51:44;;;;;;;22.90;13.03;;;;;;;;;;5100677;28;20443;-70
2021/11/19 10:54:37;;;;;;;19.83;12.63;;;;;;;;;;5100774;28;20205;-70
2021/11/19 10:57:10;;;;;;;25.87;13.33;;;;;;;;;;5085618;28;20205;-70
2021/11/19 10:59:41;;;;;;;22.53;13.50;;;;;;;;;;5100457;28;20523;-70
2021/11/19 11:02:36;;;;;;;22.70;13.20;;;;;;;;;;5100973;28;20283;-70
2021/11/19 11:05:17;;;;;;;24.73;13.10;;;;;;;;;;5086704;28;20213;-70
2021/11/19 11:08:01;;;;;;;21.63;12.63;;;;;;;;;;5100496;28;20771;-70
2021/11/19 11:10:30;;;;;;;19.83;12.77;;;;;;;;;;5089600;28;20503;-70
2021/11/19 11:12:58;;;;;;;23.37;13.50;;;;;;;;;;5098362;28;20259;-70
2021/11/19 11:15:31;;;;;;;24.20;13.90;;;;;;;;;;5100223;28;20208;-70
2021/11/19 11:18:04;;;;;;;20.27;13.33;;;;;;;;;;5100538;28;20229;-70
2021/11/19 11:20:34;;;;;;;20.40;12.43;;;;;;;;;;5099799;28;20208;-70
2021/11/19 11:23:04;;;;;;;20.90;12.87;;;;;;;;;;5099894;28;20289;-69
2021/11/19 11:25:34;;;;;;;24.17;13.60;;;;;;;;;;5095917;28;20194;-67
2021/11/19 11:28:05;;;;;;;19.67;12.57;;;;;;;;;;5085223;28;20253;-67
2021/11/19 11:30:47;;;;;;;23.13;12.53;;;;;;;;;;5087944;28;20309;-67
2021/11/19 11:33:18;;;;;;;21.20;13.53;;;;;;;;;;5088177;28;20280;-67
2021/11/19 11:35:47;;;;;;;20.53;12.63;;;;;;;;;;5099945;28;20626;-67
2021/11/19 11:38:45;;;;;;;23.07;13.60;;;;;;;;;;5085230;28;20768;-67
2021/11/19 11:41:34;;;;;;;22.97;14.60;;;;;;;;;;5083825;28;20323;-67
2021/11/19 11:44:14;;;;;;;21.77;13.50;;;;;;;;;;5087245;28;20266;-65
2021/11/19 11:46:55;;;;;;;22.37;13.00;;;;;;;;;;5080959;28;20202;-68
2021/11/19 11:49:35;;;;;;;22.30;12.67;;;;;;;;;;5083369;28;20249;-66
2021/11/19 11:52:11;;;;;;;21.80;12.97;;;;;;;;;;5086612;28;20288;-68
2021/11/19 11:54:42;;;;;;;21.47;12.87;;;;;;;;;;5085153;28;20313;-65
2021/11/19 11:57:18;;;;;;;23.70;13.33;;;;;;;;;;5085181;28;20206;-67
2021/11/19 11:59:55;;;;;;;22.43;14.33;;;;;;;;;;5085679;28;20213;-66
2021/11/19 12:02:29;;;;;;;22.50;12.37;;;;;;;;;;5085931;28;20652;-65
2021/11/19 12:05:01;;;;;;;24.57;13.10;;;;;;;;;;5081501;28;20569;-66
2021/11/19 12:07:36;;;;;;;26.37;13.00;;;;;;;;;;5088196;28;20669;-65
2021/11/19 12:10:08;;;;;;;20.97;12.37;;;;;;;;;;5090895;28;20279;-67
2021/11/19 12:12:38;;;;;;;20.63;13.10;;;;;;;;;;5098609;28;20202;-68
2021/11/19 12:15:12;;;;;;;19.53;11.40;;;;;;;;;;5098472;28;20573;-67
2021/11/19 12:17:45;;;;;;;20.90;12.60;;;;;;;;;;5097275;28;20579;-68
2021/11/19 12:20:17;;;;;;;24.43;14.13;;;;;;;;;;5098573;28;20200;-68
2021/11/19 12:22:47;;;;;;;26.50;13.50;;;;;;;;;;5098932;28;20573;-68
2021/11/19 12:25:30;;;;;;;21.47;13.40;;;;;;;;;;5098814;28;20201;-68
2021/11/19 12:28:00;;;;;;;23.37;13.33;;;;;;;;;;5065851;28;20222;-68
2021/11/19 12:30:30;;;;;;;22.07;12.80;;;;;;;;;;5098695;28;20288;-68
2021/11/19 12:33:08;;;;;;;23.00;13.10;;;;;;;;;;5098403;28;20281;-68
2021/11/19 12:35:38;;;;;;;22.03;12.53;;;;;;;;;;5098490;28;20232;-67
2021/11/19 12:38:08;;;;;;;22.27;14.03;;;;;;;;;;5096944;28;20225;-68
2021/11/19 12:40:45;;;;;;;24.13;12.87;;;;;;;;;;5098720;28;20243;-68
2021/11/19 12:43:32;;;;;;;20.53;12.83;;;;;;;;;;5101452;28;20286;-67
2021/11/19 12:46:04;;;;;;;24.53;12.97;;;;;;;;;;5106230;28;20608;-68
2021/11/19 12:49:05;;;;;;;20.63;12.03;;;;;;;;;;5102462;28;20232;-68
2021/11/19 12:51:34;;;;;;;21.80;12.77;;;;;;;;;;5107277;28;20271;-68
2021/11/19 12:54:16;;;;;;;22.73;12.73;;;;;;;;;;5099085;28;20213;-68
2021/11/19 12:56:59;;;;;;;20.30;11.90;;;;;;;;;;5105320;28;20196;-68
2021/11/19 12:59:41;;;;;;;20.13;11.53;;;;;;;;;;5075718;28;20250;-68
2021/11/19 13:02:16;;;;;;;18.00;12.47;;;;;;;;;;5098597;28;20671;-67
2021/11/19 13:04:59;;;;;;;21.77;13.60;;;;;;;;;;5098788;28;20200;-68
2021/11/19 13:07:33;;;;;;;19.83;13.03;;;;;;;;;;5095875;28;20735;-67
2021/11/19 13:10:02;;;;;;;26.90;14.90;;;;;;;;;;5098201;28;20285;-67
2021/11/19 13:12:35;;;;;;;22.73;14.03;;;;;;;;;;5098249;28;20205;-67
2021/11/19 13:15:25;;;;;;;19.50;12.97;;;;;;;;;;5098007;28;20205;-67
2021/11/19 13:17:58;;;;;;;21.53;12.77;;;;;;;;;;5098210;28;20209;-67
2021/11/19 13:20:50;;;;;;;19.13;11.53;;;;;;;;;;5097969;28;20724;-67
2021/11/19 13:23:38;;;;;;;20.17;12.83;;;;;;;;;;5083146;28;20213;-67
2021/11/19 13:26:25;;;;;;;18.73;11.67;;;;;;;;;;5097863;28;20237;-67
2021/11/19 13:28:55;;;;;;;20.70;12.20;;;;;;;;;;5097793;28;20275;-67
2021/11/19 13:31:26;;;;;;;22.03;11.83;;;;;;;;;;5097772;28;20225;-68
2021/11/19 13:34:13;;;;;;;21.27;12.67;;;;;;;;;;5097997;28;20267;-68
2021/11/19 13:36:47;;;;;;;20.27;11.60;;;;;;;;;;5097641;28;20231;-68
2021/11/19 13:39:35;;;;;;;19.70;12.17;;;;;;;;;;5098092;28;20232;-68
2021/11/19 13:42:23;;;;;;;18.70;12.23;;;;;;;;;;5087278;28;20277;-68
2021/11/19 13:45:02;;;;;;;16.17;10.80;;;;;;;;;;5097622;28;20212;-68
2021/11/19 13:47:49;;;;;;;17.77;11.77;;;;;;;;;;5097719;28;20288;-67
2021/11/19 13:50:28;;;;;;;21.67;12.40;;;;;;;;;;5097856;28;20205;-67
2021/11/19 13:53:01;;;;;;;18.23;11.50;;;;;;;;;;5097817;28;20201;-67
2021/11/19 13:55:34;;;;;;;22.83;12.57;;;;;;;;;;5097778;28;20682;-67
2021/11/19 13:58:24;;;;;;;21.17;11.87;;;;;;;;;;5097875;28;20221;-67
2021/11/19 14:00:58;;;;;;;19.97;12.13;;;;;;;;;;5097544;28;20207;-67
2021/11/19 14:03:30;;;;;;;20.47;12.00;;;;;;;;;;5097401;28;20206;-67
2021/11/19 14:06:11;;;;;;;20.23;10.83;;;;;;;;;;5097379;28;20670;-67
2021/11/19 14:08:39;;;;;;;19.03;12.27;;;;;;;;;;5101244;28;20312;-67
2021/11/19 14:11:13;;;;;;;19.23;12.07;;;;;;;;;;5101778;28;20221;-67
2021/11/19 14:13:43;;;;;;;22.23;12.53;;;;;;;;;;5101846;28;20289;-67
2021/11/19 14:16:13;;;;;;;20.73;11.83;;;;;;;;;;5101467;28;20208;-67
2021/11/19 14:18:51;;;;;;;20.53;11.77;;;;;;;;;;5101774;28;20247;-67
2021/11/19 14:24:11;;;;;;;19.67;12.63;;;;;;;;;;5097277;28;20208;-68
2021/11/19 14:26:40;;;;;;;18.13;11.47;;;;;;;;;;5105343;28;20264;-68
2021/11/19 14:29:14;;;;;;;17.83;11.80;;;;;;;;;;5107985;28;20311;-68
2021/11/19 14:31:45;;;;;;;18.00;11.87;;;;;;;;;;5105215;28;20687;-68
2021/11/19 14:34:14;;;;;;;17.30;11.50;;;;;;;;;;5110270;28;20209;-68
2021/11/19 14:37:00;;;;;;;18.17;12.43;;;;;;;;;;5106799;28;20670;-69
2021/11/19 14:39:34;;;;;;;19.60;11.20;;;;;;;;;;5107933;28;20236;-69
2021/11/19 14:42:04;;;;;;;21.23;12.57;;;;;;;;;;5088882;28;20306;-70
2021/11/19 14:44:33;;;;;;;17.80;11.70;;;;;;;;;;5100272;28;20215;-72
2021/11/19 14:47:04;;;;;;;21.47;12.23;;;;;;;;;;5101003;28;20241;-70
2021/11/19 14:49:36;;;;;;;20.33;11.87;;;;;;;;;;5102811;28;20300;-66
2021/11/19 14:52:13;;;;;;;18.40;11.40;;;;;;;;;;5108526;28;20225;-68
2021/11/19 14:54:43;;;;;;;16.10;11.87;;;;;;;;;;5107207;28;20194;-70
2021/11/19 14:57:17;;;;;;;19.60;12.43;;;;;;;;;;5109794;28;20230;-69